sensor_id;sensor_type;location;lat;lon;timestamp;temperature;humidity
5834;DHT22;2943;48.012;10.968;2023-08-01T00:00:09;19.90;99.90
5834;DHT22;2943;48.012;10.968;2023-08-01T00:02:37;19.90;99.90
5834;DHT22;2943;48.012;10.968;2023-08-01T00:05:04;19.90;99.90
5834;DHT22;2943;48.012;10.968;2023-08-01T00:07:31;19.90;99.90
5834;DHT22;2943;48.012;10.968;2023-08-01T00:09:58;19.90;99.90
5834;DHT22;2943;48.012;10.968;2023-08-01T00:12:24;19.90;99.90
5834;DHT22;2943;48.012;10.968;2023-08-01T00:14:51;19.80;99.90
5834;DHT22;2943;48.012;10.968;2023-08-01T00:17:18;19.80;99.90
5834;DHT22;2943;48.012;10.968;2023-08-01T00:19:46;19.80;99.90
5834;DHT22;2943;48.012;10.968;2023-08-01T00:22:12;19.70;99.90
5834;DHT22;2943;48.012;10.968;2023-08-01T00:24:39;19.70;99.90
5834;DHT22;2943;48.012;10.968;2023-08-01T00:27:06;19.70;99.90
5834;DHT22;2943;48.012;10.968;2023-08-01T00:29:34;19.70;99.90
5834;DHT22;2943;48.012;10.968;2023-08-01T00:32:01;19.70;99.90
5834;DHT22;2943;48.012;10.968;2023-08-01T00:34:28;19.70;99.90
5834;DHT22;2943;48.012;10.968;2023-08-01T00:36:56;19.60;99.90
5834;DHT22;2943;48.012;10.968;2023-08-01T00:39:23;19.60;99.90
5834;DHT22;2943;48.012;10.968;2023-08-01T00:41:50;19.60;99.90
5834;DHT22;2943;48.012;10.968;2023-08-01T00:44:16;19.60;99.90
5834;DHT22;2943;48.012;10.968;2023-08-01T00:46:43;19.60;99.90
5834;DHT22;2943;48.012;10.968;2023-08-01T00:49:10;19.60;99.90
5834;DHT22;2943;48.012;10.968;2023-08-01T00:51:37;19.60;99.90
5834;DHT22;2943;48.012;10.968;2023-08-01T00:54:05;19.70;99.90
5834;DHT22;2943;48.012;10.968;2023-08-01T00:56:32;19.70;99.90
5834;DHT22;2943;48.012;10.968;2023-08-01T00:58:58;19.70;99.90
5834;DHT22;2943;48.012;10.968;2023-08-01T01:01:25;19.70;99.90
5834;DHT22;2943;48.012;10.968;2023-08-01T01:03:52;19.70;99.90
5834;DHT22;2943;48.012;10.968;2023-08-01T01:06:20;19.70;99.90
5834;DHT22;2943;48.012;10.968;2023-08-01T01:08:47;19.70;99.90
5834;DHT22;2943;48.012;10.968;2023-08-01T01:11:15;19.70;99.90
5834;DHT22;2943;48.012;10.968;2023-08-01T01:13:42;19.70;99.90
5834;DHT22;2943;48.012;10.968;2023-08-01T01:16:08;19.70;99.90
5834;DHT22;2943;48.012;10.968;2023-08-01T01:18:35;19.70;99.90
5834;DHT22;2943;48.012;10.968;2023-08-01T01:21:03;19.80;99.90
5834;DHT22;2943;48.012;10.968;2023-08-01T01:23:30;19.80;99.90
5834;DHT22;2943;48.012;10.968;2023-08-01T01:25:58;19.80;99.90
5834;DHT22;2943;48.012;10.968;2023-08-01T01:28:25;19.80;99.90
5834;DHT22;2943;48.012;10.968;2023-08-01T01:30:52;19.80;99.90
5834;DHT22;2943;48.012;10.968;2023-08-01T01:33:20;19.80;99.90
5834;DHT22;2943;48.012;10.968;2023-08-01T01:35:46;19.80;99.90
5834;DHT22;2943;48.012;10.968;2023-08-01T01:38:15;19.80;99.90
5834;DHT22;2943;48.012;10.968;2023-08-01T01:40:41;19.80;99.90
5834;DHT22;2943;48.012;10.968;2023-08-01T01:43:08;19.80;99.90
5834;DHT22;2943;48.012;10.968;2023-08-01T01:45:35;19.80;99.90
5834;DHT22;2943;48.012;10.968;2023-08-01T01:48:01;19.80;99.90
5834;DHT22;2943;48.012;10.968;2023-08-01T01:50:28;19.80;99.90
5834;DHT22;2943;48.012;10.968;2023-08-01T01:52:55;19.80;99.90
5834;DHT22;2943;48.012;10.968;2023-08-01T01:55:23;19.90;99.90
5834;DHT22;2943;48.012;10.968;2023-08-01T01:57:49;19.90;99.90
5834;DHT22;2943;48.012;10.968;2023-08-01T02:00:16;19.90;99.90
5834;DHT22;2943;48.012;10.968;2023-08-01T02:02:43;20.00;99.90
5834;DHT22;2943;48.012;10.968;2023-08-01T02:05:09;20.00;99.90
5834;DHT22;2943;48.012;10.968;2023-08-01T02:07:36;20.00;99.90
5834;DHT22;2943;48.012;10.968;2023-08-01T02:10:03;20.00;99.90
5834;DHT22;2943;48.012;10.968;2023-08-01T02:12:31;20.00;99.90
5834;DHT22;2943;48.012;10.968;2023-08-01T02:15:00;20.00;99.90
5834;DHT22;2943;48.012;10.968;2023-08-01T02:17:26;20.00;99.90
5834;DHT22;2943;48.012;10.968;2023-08-01T02:19:53;20.00;99.90
5834;DHT22;2943;48.012;10.968;2023-08-01T02:22:20;20.00;99.90
5834;DHT22;2943;48.012;10.968;2023-08-01T02:24:46;20.00;99.90
5834;DHT22;2943;48.012;10.968;2023-08-01T02:27:13;20.00;99.90
5834;DHT22;2943;48.012;10.968;2023-08-01T02:29:41;19.90;99.90
5834;DHT22;2943;48.012;10.968;2023-08-01T02:32:09;19.90;99.90
5834;DHT22;2943;48.012;10.968;2023-08-01T02:34:36;19.90;99.90
5834;DHT22;2943;48.012;10.968;2023-08-01T02:37:03;19.80;99.90
5834;DHT22;2943;48.012;10.968;2023-08-01T02:39:29;19.90;99.90
5834;DHT22;2943;48.012;10.968;2023-08-01T02:41:56;19.80;99.90
5834;DHT22;2943;48.012;10.968;2023-08-01T02:44:23;19.80;99.90
5834;DHT22;2943;48.012;10.968;2023-08-01T02:46:52;19.70;99.90
5834;DHT22;2943;48.012;10.968;2023-08-01T02:49:19;19.60;99.90
5834;DHT22;2943;48.012;10.968;2023-08-01T02:51:45;19.60;99.90
5834;DHT22;2943;48.012;10.968;2023-08-01T02:54:12;19.60;99.90
5834;DHT22;2943;48.012;10.968;2023-08-01T02:56:39;19.50;99.90
5834;DHT22;2943;48.012;10.968;2023-08-01T02:59:06;19.40;99.90
5834;DHT22;2943;48.012;10.968;2023-08-01T03:01:33;19.40;99.90
5834;DHT22;2943;48.012;10.968;2023-08-01T03:04:02;19.30;99.90
5834;DHT22;2943;48.012;10.968;2023-08-01T03:06:28;19.30;99.90
5834;DHT22;2943;48.012;10.968;2023-08-01T03:08:56;19.20;99.90
5834;DHT22;2943;48.012;10.968;2023-08-01T03:11:23;19.10;99.90
5834;DHT22;2943;48.012;10.968;2023-08-01T03:13:50;19.00;99.90
5834;DHT22;2943;48.012;10.968;2023-08-01T03:16:17;19.00;99.90
5834;DHT22;2943;48.012;10.968;2023-08-01T03:18:44;18.90;99.90
5834;DHT22;2943;48.012;10.968;2023-08-01T03:21:12;18.70;99.90
5834;DHT22;2943;48.012;10.968;2023-08-01T03:23:38;18.60;99.90
5834;DHT22;2943;48.012;10.968;2023-08-01T03:26:05;18.50;99.90
5834;DHT22;2943;48.012;10.968;2023-08-01T03:28:32;18.30;99.90
5834;DHT22;2943;48.012;10.968;2023-08-01T03:30:58;18.20;99.90
5834;DHT22;2943;48.012;10.968;2023-08-01T03:33:25;18.10;99.90
5834;DHT22;2943;48.012;10.968;2023-08-01T03:35:52;18.00;99.90
5834;DHT22;2943;48.012;10.968;2023-08-01T03:38:20;17.90;99.90
5834;DHT22;2943;48.012;10.968;2023-08-01T03:40:47;17.90;99.90
5834;DHT22;2943;48.012;10.968;2023-08-01T03:43:15;17.80;99.90
5834;DHT22;2943;48.012;10.968;2023-08-01T03:45:41;17.70;99.90
5834;DHT22;2943;48.012;10.968;2023-08-01T03:48:08;17.70;99.90
5834;DHT22;2943;48.012;10.968;2023-08-01T03:50:35;17.60;99.90
5834;DHT22;2943;48.012;10.968;2023-08-01T03:53:01;17.60;99.90
5834;DHT22;2943;48.012;10.968;2023-08-01T03:55:29;17.50;99.90
5834;DHT22;2943;48.012;10.968;2023-08-01T03:57:56;17.50;99.90
5834;DHT22;2943;48.012;10.968;2023-08-01T04:00:23;17.40;99.90
5834;DHT22;2943;48.012;10.968;2023-08-01T04:02:49;17.40;99.90
5834;DHT22;2943;48.012;10.968;2023-08-01T04:05:16;17.40;99.90
5834;DHT22;2943;48.012;10.968;2023-08-01T04:07:43;17.30;99.90
5834;DHT22;2943;48.012;10.968;2023-08-01T04:10:10;17.20;99.90
5834;DHT22;2943;48.012;10.968;2023-08-01T04:12:38;17.20;99.90
5834;DHT22;2943;48.012;10.968;2023-08-01T04:15:05;17.10;99.90
5834;DHT22;2943;48.012;10.968;2023-08-01T04:17:32;17.10;99.90
5834;DHT22;2943;48.012;10.968;2023-08-01T04:19:58;17.00;99.90
5834;DHT22;2943;48.012;10.968;2023-08-01T04:22:25;16.90;99.90
5834;DHT22;2943;48.012;10.968;2023-08-01T04:24:52;17.00;99.90
5834;DHT22;2943;48.012;10.968;2023-08-01T04:27:18;16.90;99.90
5834;DHT22;2943;48.012;10.968;2023-08-01T04:29:47;17.00;99.90
5834;DHT22;2943;48.012;10.968;2023-08-01T04:32:13;16.90;99.90
5834;DHT22;2943;48.012;10.968;2023-08-01T04:34:40;16.90;99.90
5834;DHT22;2943;48.012;10.968;2023-08-01T04:37:07;16.90;99.90
5834;DHT22;2943;48.012;10.968;2023-08-01T04:39:35;16.90;99.90
5834;DHT22;2943;48.012;10.968;2023-08-01T04:42:02;16.90;99.90
5834;DHT22;2943;48.012;10.968;2023-08-01T04:44:29;16.90;99.90
5834;DHT22;2943;48.012;10.968;2023-08-01T04:46:57;16.90;99.90
5834;DHT22;2943;48.012;10.968;2023-08-01T04:49:24;16.90;99.90
5834;DHT22;2943;48.012;10.968;2023-08-01T04:51:50;16.90;99.90
5834;DHT22;2943;48.012;10.968;2023-08-01T04:54:17;17.00;99.90
5834;DHT22;2943;48.012;10.968;2023-08-01T04:56:44;17.00;99.90
5834;DHT22;2943;48.012;10.968;2023-08-01T04:59:11;17.00;99.90
5834;DHT22;2943;48.012;10.968;2023-08-01T05:01:37;17.00;99.90
5834;DHT22;2943;48.012;10.968;2023-08-01T05:04:05;17.00;99.90
5834;DHT22;2943;48.012;10.968;2023-08-01T05:06:32;17.00;99.90
5834;DHT22;2943;48.012;10.968;2023-08-01T05:08:59;17.00;99.90
5834;DHT22;2943;48.012;10.968;2023-08-01T05:11:26;17.10;99.90
5834;DHT22;2943;48.012;10.968;2023-08-01T05:13:53;17.10;99.90
5834;DHT22;2943;48.012;10.968;2023-08-01T05:16:20;17.10;99.90
5834;DHT22;2943;48.012;10.968;2023-08-01T05:18:46;17.10;99.90
5834;DHT22;2943;48.012;10.968;2023-08-01T05:21:14;17.10;99.90
5834;DHT22;2943;48.012;10.968;2023-08-01T05:23:41;17.20;99.90
5834;DHT22;2943;48.012;10.968;2023-08-01T05:26:08;17.20;99.90
5834;DHT22;2943;48.012;10.968;2023-08-01T05:28:34;17.20;99.90
5834;DHT22;2943;48.012;10.968;2023-08-01T05:31:01;17.20;99.90
5834;DHT22;2943;48.012;10.968;2023-08-01T05:33:28;17.20;99.90
5834;DHT22;2943;48.012;10.968;2023-08-01T05:35:54;17.20;99.90
5834;DHT22;2943;48.012;10.968;2023-08-01T05:38:22;17.20;99.90
5834;DHT22;2943;48.012;10.968;2023-08-01T05:40:49;17.20;99.90
5834;DHT22;2943;48.012;10.968;2023-08-01T05:43:16;17.30;99.90
5834;DHT22;2943;48.012;10.968;2023-08-01T05:45:43;17.30;99.90
5834;DHT22;2943;48.012;10.968;2023-08-01T05:48:09;17.30;99.90
5834;DHT22;2943;48.012;10.968;2023-08-01T05:50:38;17.40;99.90
5834;DHT22;2943;48.012;10.968;2023-08-01T05:53:05;17.40;99.90
5834;DHT22;2943;48.012;10.968;2023-08-01T05:55:34;17.40;99.90
5834;DHT22;2943;48.012;10.968;2023-08-01T05:58:02;17.40;99.90
5834;DHT22;2943;48.012;10.968;2023-08-01T06:00:29;17.40;99.90
5834;DHT22;2943;48.012;10.968;2023-08-01T06:02:56;17.40;99.90
5834;DHT22;2943;48.012;10.968;2023-08-01T06:05:23;17.40;99.90
5834;DHT22;2943;48.012;10.968;2023-08-01T06:07:50;17.40;99.90
5834;DHT22;2943;48.012;10.968;2023-08-01T06:10:16;17.40;99.90
5834;DHT22;2943;48.012;10.968;2023-08-01T06:12:45;17.40;99.90
5834;DHT22;2943;48.012;10.968;2023-08-01T06:15:12;17.40;99.90
5834;DHT22;2943;48.012;10.968;2023-08-01T06:17:38;17.40;99.90
5834;DHT22;2943;48.012;10.968;2023-08-01T06:20:05;17.50;99.90
5834;DHT22;2943;48.012;10.968;2023-08-01T06:22:33;17.40;99.90
5834;DHT22;2943;48.012;10.968;2023-08-01T06:24:59;17.50;99.90
5834;DHT22;2943;48.012;10.968;2023-08-01T06:27:26;17.50;99.90
5834;DHT22;2943;48.012;10.968;2023-08-01T06:29:54;17.50;99.90
5834;DHT22;2943;48.012;10.968;2023-08-01T06:32:21;17.50;99.90
5834;DHT22;2943;48.012;10.968;2023-08-01T06:34:47;17.50;99.90
5834;DHT22;2943;48.012;10.968;2023-08-01T06:37:14;17.40;99.90
5834;DHT22;2943;48.012;10.968;2023-08-01T06:39:41;17.40;99.90
5834;DHT22;2943;48.012;10.968;2023-08-01T06:42:07;17.40;99.90
5834;DHT22;2943;48.012;10.968;2023-08-01T06:44:34;17.40;99.90
5834;DHT22;2943;48.012;10.968;2023-08-01T06:47:02;17.40;99.90
5834;DHT22;2943;48.012;10.968;2023-08-01T06:49:29;17.40;99.90
5834;DHT22;2943;48.012;10.968;2023-08-01T06:51:56;17.40;99.90
5834;DHT22;2943;48.012;10.968;2023-08-01T06:54:23;17.40;99.90
5834;DHT22;2943;48.012;10.968;2023-08-01T06:56:49;17.40;99.90
5834;DHT22;2943;48.012;10.968;2023-08-01T06:59:16;17.30;99.90
5834;DHT22;2943;48.012;10.968;2023-08-01T07:01:43;17.40;99.90
5834;DHT22;2943;48.012;10.968;2023-08-01T07:04:12;17.40;99.90
5834;DHT22;2943;48.012;10.968;2023-08-01T07:06:39;17.40;99.90
5834;DHT22;2943;48.012;10.968;2023-08-01T07:09:06;17.40;99.90
5834;DHT22;2943;48.012;10.968;2023-08-01T07:11:32;17.40;99.90
5834;DHT22;2943;48.012;10.968;2023-08-01T07:13:59;17.40;99.90
5834;DHT22;2943;48.012;10.968;2023-08-01T07:16:26;17.40;99.90
5834;DHT22;2943;48.012;10.968;2023-08-01T07:18:54;17.40;99.90
5834;DHT22;2943;48.012;10.968;2023-08-01T07:21:22;17.40;99.90
5834;DHT22;2943;48.012;10.968;2023-08-01T07:23:49;17.40;99.90
5834;DHT22;2943;48.012;10.968;2023-08-01T07:26:16;17.40;99.90
5834;DHT22;2943;48.012;10.968;2023-08-01T07:28:43;17.40;99.90
5834;DHT22;2943;48.012;10.968;2023-08-01T07:31:09;17.40;99.90
5834;DHT22;2943;48.012;10.968;2023-08-01T07:33:36;17.40;99.90
5834;DHT22;2943;48.012;10.968;2023-08-01T07:36:06;17.30;99.90
5834;DHT22;2943;48.012;10.968;2023-08-01T07:38:34;17.30;99.90
5834;DHT22;2943;48.012;10.968;2023-08-01T07:41:02;17.20;99.90
5834;DHT22;2943;48.012;10.968;2023-08-01T07:43:28;17.10;99.90
5834;DHT22;2943;48.012;10.968;2023-08-01T07:45:55;17.10;99.90
5834;DHT22;2943;48.012;10.968;2023-08-01T07:48:22;17.00;99.90
5834;DHT22;2943;48.012;10.968;2023-08-01T07:50:49;17.00;99.90
5834;DHT22;2943;48.012;10.968;2023-08-01T07:53:15;17.00;99.90
5834;DHT22;2943;48.012;10.968;2023-08-01T07:55:43;17.00;99.90
5834;DHT22;2943;48.012;10.968;2023-08-01T07:58:10;17.00;99.90
5834;DHT22;2943;48.012;10.968;2023-08-01T08:00:37;17.10;99.90
5834;DHT22;2943;48.012;10.968;2023-08-01T08:03:04;17.20;99.90
5834;DHT22;2943;48.012;10.968;2023-08-01T08:05:33;17.20;99.90
5834;DHT22;2943;48.012;10.968;2023-08-01T08:08:02;17.40;99.90
5834;DHT22;2943;48.012;10.968;2023-08-01T08:10:28;17.50;99.90
5834;DHT22;2943;48.012;10.968;2023-08-01T08:12:56;17.70;99.90
5834;DHT22;2943;48.012;10.968;2023-08-01T08:15:23;17.80;99.90
5834;DHT22;2943;48.012;10.968;2023-08-01T08:17:51;18.00;99.90
5834;DHT22;2943;48.012;10.968;2023-08-01T08:20:18;18.00;99.90
5834;DHT22;2943;48.012;10.968;2023-08-01T08:22:44;18.00;99.90
5834;DHT22;2943;48.012;10.968;2023-08-01T08:25:11;18.10;99.90
5834;DHT22;2943;48.012;10.968;2023-08-01T08:27:38;18.10;99.90
5834;DHT22;2943;48.012;10.968;2023-08-01T08:30:07;18.10;99.90
5834;DHT22;2943;48.012;10.968;2023-08-01T08:32:35;18.00;99.90
5834;DHT22;2943;48.012;10.968;2023-08-01T08:35:01;18.00;99.90
5834;DHT22;2943;48.012;10.968;2023-08-01T08:37:29;18.00;99.90
5834;DHT22;2943;48.012;10.968;2023-08-01T08:39:56;18.00;99.90
5834;DHT22;2943;48.012;10.968;2023-08-01T08:42:22;18.00;99.90
5834;DHT22;2943;48.012;10.968;2023-08-01T08:44:50;18.00;99.90
5834;DHT22;2943;48.012;10.968;2023-08-01T08:47:23;17.90;99.90
5834;DHT22;2943;48.012;10.968;2023-08-01T08:49:51;17.90;99.90
5834;DHT22;2943;48.012;10.968;2023-08-01T08:52:18;17.90;99.90
5834;DHT22;2943;48.012;10.968;2023-08-01T08:54:48;18.00;99.90
5834;DHT22;2943;48.012;10.968;2023-08-01T08:57:15;17.90;99.90
5834;DHT22;2943;48.012;10.968;2023-08-01T08:59:42;17.90;99.90
5834;DHT22;2943;48.012;10.968;2023-08-01T09:02:09;17.90;99.90
5834;DHT22;2943;48.012;10.968;2023-08-01T09:04:37;18.00;99.90
5834;DHT22;2943;48.012;10.968;2023-08-01T09:07:06;18.00;99.90
5834;DHT22;2943;48.012;10.968;2023-08-01T09:09:34;18.00;99.90
5834;DHT22;2943;48.012;10.968;2023-08-01T09:12:02;18.00;99.90
5834;DHT22;2943;48.012;10.968;2023-08-01T09:14:29;18.00;99.90
5834;DHT22;2943;48.012;10.968;2023-08-01T09:17:05;18.00;99.90
5834;DHT22;2943;48.012;10.968;2023-08-01T09:19:31;18.00;99.90
5834;DHT22;2943;48.012;10.968;2023-08-01T09:21:59;17.90;99.90
5834;DHT22;2943;48.012;10.968;2023-08-01T09:24:26;18.00;99.90
5834;DHT22;2943;48.012;10.968;2023-08-01T09:26:53;18.00;99.90
5834;DHT22;2943;48.012;10.968;2023-08-01T09:29:28;17.90;99.90
5834;DHT22;2943;48.012;10.968;2023-08-01T09:31:56;17.90;99.90
5834;DHT22;2943;48.012;10.968;2023-08-01T09:34:24;17.90;99.90
5834;DHT22;2943;48.012;10.968;2023-08-01T09:36:56;18.00;99.90
5834;DHT22;2943;48.012;10.968;2023-08-01T09:39:24;18.00;99.90
5834;DHT22;2943;48.012;10.968;2023-08-01T09:41:54;18.00;99.90
5834;DHT22;2943;48.012;10.968;2023-08-01T09:44:21;18.10;99.90
5834;DHT22;2943;48.012;10.968;2023-08-01T09:46:54;18.10;99.90
5834;DHT22;2943;48.012;10.968;2023-08-01T09:49:21;18.10;99.90
5834;DHT22;2943;48.012;10.968;2023-08-01T09:51:48;18.20;99.90
5834;DHT22;2943;48.012;10.968;2023-08-01T09:54:15;18.20;99.90
5834;DHT22;2943;48.012;10.968;2023-08-01T09:56:44;18.20;99.90
5834;DHT22;2943;48.012;10.968;2023-08-01T09:59:10;18.20;99.90
5834;DHT22;2943;48.012;10.968;2023-08-01T10:01:38;18.30;99.90
5834;DHT22;2943;48.012;10.968;2023-08-01T10:04:05;18.30;99.90
5834;DHT22;2943;48.012;10.968;2023-08-01T10:06:34;18.20;99.90
5834;DHT22;2943;48.012;10.968;2023-08-01T10:09:03;18.20;99.90
5834;DHT22;2943;48.012;10.968;2023-08-01T10:11:33;18.10;99.90
5834;DHT22;2943;48.012;10.968;2023-08-01T10:14:03;18.00;99.90
5834;DHT22;2943;48.012;10.968;2023-08-01T10:16:31;17.90;99.90
5834;DHT22;2943;48.012;10.968;2023-08-01T10:18:57;17.90;99.90
5834;DHT22;2943;48.012;10.968;2023-08-01T10:21:25;17.80;99.90
5834;DHT22;2943;48.012;10.968;2023-08-01T10:23:53;17.70;99.90
5834;DHT22;2943;48.012;10.968;2023-08-01T10:26:20;17.70;99.90
5834;DHT22;2943;48.012;10.968;2023-08-01T10:28:49;17.70;99.90
5834;DHT22;2943;48.012;10.968;2023-08-01T10:31:18;17.60;99.90
5834;DHT22;2943;48.012;10.968;2023-08-01T10:33:46;17.60;99.90
5834;DHT22;2943;48.012;10.968;2023-08-01T10:36:13;17.50;99.90
5834;DHT22;2943;48.012;10.968;2023-08-01T10:38:47;17.30;99.90
5834;DHT22;2943;48.012;10.968;2023-08-01T10:41:20;17.10;99.90
5834;DHT22;2943;48.012;10.968;2023-08-01T10:43:47;16.90;99.90
5834;DHT22;2943;48.012;10.968;2023-08-01T10:46:14;16.80;99.90
5834;DHT22;2943;48.012;10.968;2023-08-01T10:48:49;16.60;99.90
5834;DHT22;2943;48.012;10.968;2023-08-01T10:51:16;16.60;99.90
5834;DHT22;2943;48.012;10.968;2023-08-01T10:53:43;16.50;99.90
5834;DHT22;2943;48.012;10.968;2023-08-01T10:56:15;16.50;99.90
5834;DHT22;2943;48.012;10.968;2023-08-01T10:58:42;16.60;99.90
5834;DHT22;2943;48.012;10.968;2023-08-01T11:01:09;16.70;99.90
5834;DHT22;2943;48.012;10.968;2023-08-01T11:03:35;16.70;99.90
5834;DHT22;2943;48.012;10.968;2023-08-01T11:06:06;16.80;99.90
5834;DHT22;2943;48.012;10.968;2023-08-01T11:08:36;16.80;99.90
5834;DHT22;2943;48.012;10.968;2023-08-01T11:11:04;16.80;99.90
5834;DHT22;2943;48.012;10.968;2023-08-01T11:13:31;16.90;99.90
5834;DHT22;2943;48.012;10.968;2023-08-01T11:16:02;16.90;99.90
5834;DHT22;2943;48.012;10.968;2023-08-01T11:18:29;16.90;99.90
5834;DHT22;2943;48.012;10.968;2023-08-01T11:20:55;17.00;99.90
5834;DHT22;2943;48.012;10.968;2023-08-01T11:23:28;16.90;99.90
5834;DHT22;2943;48.012;10.968;2023-08-01T11:25:55;16.90;99.90
5834;DHT22;2943;48.012;10.968;2023-08-01T11:28:22;16.90;99.90
5834;DHT22;2943;48.012;10.968;2023-08-01T11:30:49;16.90;99.90
5834;DHT22;2943;48.012;10.968;2023-08-01T11:33:17;16.90;99.90
5834;DHT22;2943;48.012;10.968;2023-08-01T11:35:45;16.90;99.90
5834;DHT22;2943;48.012;10.968;2023-08-01T11:38:12;16.90;99.90
5834;DHT22;2943;48.012;10.968;2023-08-01T11:40:40;16.80;99.90
5834;DHT22;2943;48.012;10.968;2023-08-01T11:43:07;16.80;99.90
5834;DHT22;2943;48.012;10.968;2023-08-01T11:45:34;16.80;99.90
5834;DHT22;2943;48.012;10.968;2023-08-01T11:48:01;16.90;99.90
5834;DHT22;2943;48.012;10.968;2023-08-01T11:50:28;17.00;99.90
5834;DHT22;2943;48.012;10.968;2023-08-01T11:52:57;17.10;99.90
5834;DHT22;2943;48.012;10.968;2023-08-01T11:55:27;17.30;99.90
5834;DHT22;2943;48.012;10.968;2023-08-01T11:57:56;17.40;99.90
5834;DHT22;2943;48.012;10.968;2023-08-01T12:00:23;17.40;99.90
5834;DHT22;2943;48.012;10.968;2023-08-01T12:02:50;17.50;99.90
5834;DHT22;2943;48.012;10.968;2023-08-01T12:05:21;17.60;99.90
5834;DHT22;2943;48.012;10.968;2023-08-01T12:07:47;17.70;99.90
5834;DHT22;2943;48.012;10.968;2023-08-01T12:10:14;17.80;99.90
5834;DHT22;2943;48.012;10.968;2023-08-01T12:12:43;17.80;99.90
5834;DHT22;2943;48.012;10.968;2023-08-01T12:15:11;17.80;99.90
5834;DHT22;2943;48.012;10.968;2023-08-01T12:17:38;17.80;99.90
5834;DHT22;2943;48.012;10.968;2023-08-01T12:20:05;17.80;99.90
5834;DHT22;2943;48.012;10.968;2023-08-01T12:22:32;17.80;99.90
5834;DHT22;2943;48.012;10.968;2023-08-01T12:24:59;17.80;99.90
5834;DHT22;2943;48.012;10.968;2023-08-01T12:27:26;17.80;99.90
5834;DHT22;2943;48.012;10.968;2023-08-01T12:29:53;17.70;99.90
5834;DHT22;2943;48.012;10.968;2023-08-01T12:32:23;17.70;99.90
5834;DHT22;2943;48.012;10.968;2023-08-01T12:34:50;17.70;99.90
5834;DHT22;2943;48.012;10.968;2023-08-01T12:37:17;17.70;99.90
5834;DHT22;2943;48.012;10.968;2023-08-01T12:39:43;17.70;99.90
5834;DHT22;2943;48.012;10.968;2023-08-01T12:42:10;17.70;99.90
5834;DHT22;2943;48.012;10.968;2023-08-01T12:44:37;17.80;99.90
5834;DHT22;2943;48.012;10.968;2023-08-01T12:47:04;17.90;99.90
5834;DHT22;2943;48.012;10.968;2023-08-01T12:49:48;18.00;99.90
5834;DHT22;2943;48.012;10.968;2023-08-01T12:54:57;18.30;99.90
5834;DHT22;2943;48.012;10.968;2023-08-01T12:57:25;18.40;99.90
5834;DHT22;2943;48.012;10.968;2023-08-01T12:59:51;18.40;99.90
5834;DHT22;2943;48.012;10.968;2023-08-01T13:02:18;18.50;99.90
5834;DHT22;2943;48.012;10.968;2023-08-01T13:04:45;18.50;99.90
5834;DHT22;2943;48.012;10.968;2023-08-01T13:07:13;18.70;99.90
5834;DHT22;2943;48.012;10.968;2023-08-01T13:09:39;18.90;99.90
5834;DHT22;2943;48.012;10.968;2023-08-01T13:12:06;19.30;99.90
5834;DHT22;2943;48.012;10.968;2023-08-01T13:14:33;19.50;99.90
5834;DHT22;2943;48.012;10.968;2023-08-01T13:17:00;19.60;99.90
5834;DHT22;2943;48.012;10.968;2023-08-01T13:19:26;19.80;99.90
5834;DHT22;2943;48.012;10.968;2023-08-01T13:21:53;19.90;99.90
5834;DHT22;2943;48.012;10.968;2023-08-01T13:24:21;20.10;99.90
5834;DHT22;2943;48.012;10.968;2023-08-01T13:26:48;20.50;99.90
5834;DHT22;2943;48.012;10.968;2023-08-01T13:29:14;20.80;99.90
5834;DHT22;2943;48.012;10.968;2023-08-01T13:31:41;21.00;99.90
5834;DHT22;2943;48.012;10.968;2023-08-01T13:34:08;21.00;99.90
5834;DHT22;2943;48.012;10.968;2023-08-01T13:36:34;21.10;99.90
5834;DHT22;2943;48.012;10.968;2023-08-01T13:39:01;21.20;99.90
5834;DHT22;2943;48.012;10.968;2023-08-01T13:41:30;21.10;99.90
5834;DHT22;2943;48.012;10.968;2023-08-01T13:43:58;21.00;99.90
5834;DHT22;2943;48.012;10.968;2023-08-01T13:46:24;20.90;99.90
5834;DHT22;2943;48.012;10.968;2023-08-01T13:48:51;20.80;99.90
5834;DHT22;2943;48.012;10.968;2023-08-01T13:51:17;20.80;99.90
5834;DHT22;2943;48.012;10.968;2023-08-01T13:53:44;20.70;99.90
5834;DHT22;2943;48.012;10.968;2023-08-01T13:56:11;20.50;99.90
5834;DHT22;2943;48.012;10.968;2023-08-01T13:58:39;20.30;99.90
5834;DHT22;2943;48.012;10.968;2023-08-01T14:01:07;20.20;99.90
5834;DHT22;2943;48.012;10.968;2023-08-01T14:03:33;20.10;99.90
5834;DHT22;2943;48.012;10.968;2023-08-01T14:06:04;20.10;99.90
5834;DHT22;2943;48.012;10.968;2023-08-01T14:08:31;20.00;99.90
5834;DHT22;2943;48.012;10.968;2023-08-01T14:10:58;19.90;99.90
5834;DHT22;2943;48.012;10.968;2023-08-01T14:13:24;19.80;99.90
5834;DHT22;2943;48.012;10.968;2023-08-01T14:15:52;19.70;99.90
5834;DHT22;2943;48.012;10.968;2023-08-01T14:18:19;19.50;99.90
5834;DHT22;2943;48.012;10.968;2023-08-01T14:20:46;19.40;99.90
5834;DHT22;2943;48.012;10.968;2023-08-01T14:23:12;19.30;99.90
5834;DHT22;2943;48.012;10.968;2023-08-01T14:25:39;19.20;99.90
5834;DHT22;2943;48.012;10.968;2023-08-01T14:28:05;19.10;99.90
5834;DHT22;2943;48.012;10.968;2023-08-01T14:30:32;19.00;99.90
5834;DHT22;2943;48.012;10.968;2023-08-01T14:33:00;18.90;99.90
5834;DHT22;2943;48.012;10.968;2023-08-01T14:35:27;18.80;99.90
5834;DHT22;2943;48.012;10.968;2023-08-01T14:37:54;18.70;99.90
5834;DHT22;2943;48.012;10.968;2023-08-01T14:40:21;18.50;99.90
5834;DHT22;2943;48.012;10.968;2023-08-01T14:42:48;18.30;99.90
5834;DHT22;2943;48.012;10.968;2023-08-01T14:45:15;18.00;99.90
5834;DHT22;2943;48.012;10.968;2023-08-01T14:47:41;17.80;99.90
5834;DHT22;2943;48.012;10.968;2023-08-01T14:50:10;17.60;99.90
5834;DHT22;2943;48.012;10.968;2023-08-01T14:52:37;17.50;99.90
5834;DHT22;2943;48.012;10.968;2023-08-01T14:55:04;17.30;99.90
5834;DHT22;2943;48.012;10.968;2023-08-01T14:57:31;17.20;99.90
5834;DHT22;2943;48.012;10.968;2023-08-01T14:59:57;17.10;99.90
5834;DHT22;2943;48.012;10.968;2023-08-01T15:02:24;17.00;99.90
5834;DHT22;2943;48.012;10.968;2023-08-01T15:04:51;16.90;99.90
5834;DHT22;2943;48.012;10.968;2023-08-01T15:07:20;16.80;99.90
5834;DHT22;2943;48.012;10.968;2023-08-01T15:09:46;16.70;99.90
5834;DHT22;2943;48.012;10.968;2023-08-01T15:12:15;16.60;99.90
5834;DHT22;2943;48.012;10.968;2023-08-01T15:14:42;16.60;99.90
5834;DHT22;2943;48.012;10.968;2023-08-01T15:17:08;16.60;99.90
5834;DHT22;2943;48.012;10.968;2023-08-01T15:19:35;16.60;99.90
5834;DHT22;2943;48.012;10.968;2023-08-01T15:22:02;16.60;99.90
5834;DHT22;2943;48.012;10.968;2023-08-01T15:24:30;16.70;99.90
5834;DHT22;2943;48.012;10.968;2023-08-01T15:26:57;16.80;99.90
5834;DHT22;2943;48.012;10.968;2023-08-01T15:29:23;16.90;99.90
5834;DHT22;2943;48.012;10.968;2023-08-01T15:31:50;17.10;99.90
5834;DHT22;2943;48.012;10.968;2023-08-01T15:34:17;17.20;99.90
5834;DHT22;2943;48.012;10.968;2023-08-01T15:36:46;17.20;99.90
5834;DHT22;2943;48.012;10.968;2023-08-01T15:39:12;17.20;99.90
5834;DHT22;2943;48.012;10.968;2023-08-01T15:41:40;17.30;99.90
5834;DHT22;2943;48.012;10.968;2023-08-01T15:44:07;17.40;99.90
5834;DHT22;2943;48.012;10.968;2023-08-01T15:46:34;17.50;99.90